Terminal Aerodrome Forecast
Issued by NWS

Home | Current Version | Previous Version | Text Only | Print | Product List | Glossary On
Versions: 1 2 3 4 5 6 7 8 9 10 11 12
000
FTUS42 TJSJ 252339
TAFJMZ
TAF
TJMZ 252339Z 2600/2624 05005KT P6SM FEW060
     FM261630 29010KT P6SM VCTS BKN060CB
     FM262300 05005KT P6SM SCT060
      AMD NOT SKED=

USA.gov is the U.S. government's official web portal to all federal, state and local government web resources and services.